Terminal Aerodrome Forecast
Issued by NWS

Home | Current Version | Previous Version | Text Only | Print | Product List | Glossary On
Versions: 1 2 3 4 5 6 7 8 9 10 11 12 13
000
FTUS45 KABQ 310500
TAFSAF
TAF
KSAF 310536Z 3106/0106 11013KT P6SM SCT250
     FM311600 15015KT P6SM SCT200
     FM312200 14010KT P6SM SCT150
     FM010200 11010KT P6SM SCT050 SCT150=

USA.gov is the U.S. government's official web portal to all federal, state and local government web resources and services.